Tad, West Virginia
Current Conditions -  °F | °C
As of 4:54 PM on Sunday 25 Jan 2015 (Local Time) from KCRW Reporting Station
Broken Clouds Broken Clouds  
Wind Chill: 48°   Ceiling: 18000
Heat Index: 48°   Visibility: 10mi
Dew Point: 32°   Wind: 0mph
Humidity: 54%   Direction: NA
Pressure: 29.7"   Gusts: NA
Location:  38.33°N, 81.49°W
Report Text: KCRW 252154Z 00000KT 10SM SCT080 SCT120 BKN180 BKN300 09/00 A2970 RMK AO2 SLP061 T00890000
Loading
Personal Weather Stations






























Interactive Weather Map New forecast layout! Learn more

10-Day Weather Forecast

Advertisements
Track Severe Weather on mobile